Terminal Aerodrome Forecast
Issued by NWS

Home | Current Version | Previous Version | Text Only | Print | Product List | Glossary On
Versions: 1 2 3 4 5 6 7 8 9 10 11 12 13 14 15 16 17 18 19 20 21
000
FTUS43 KPAH 201120
TAFCGI
TAF
KCGI 201120Z 2012/2112 20006KT P6SM SCT050 BKN150
     FM201400 22010G20KT P6SM SCT050 BKN100
     FM202100 24008KT P6SM TS BKN050CB PROB30 2021/2024 -TSRA
     FM210000 25005KT P6SM BKN045
     FM210300 33007KT P6SM VCTS BKN025CB PROB30 2103/2108 -TSRA=

USA.gov is the U.S. government's official web portal to all federal, state and local government web resources and services.